Time;durP1;ratioP1;P1;durP2;ratioP2;P2;SDS_P1;SDS_P2;PMS_P1;PMS_P2;Temp;Humidity;BMP_temperature;BMP_pressure;BME280_temperature;BME280_humidity;BME280_pressure;Samples;Min_cycle;Max_cycle;Signal;HPM_P1;HPM_P2
2023/11/23 00:01:36;;;;;;;;;;;;;;;1.22;72.97;101583.78;4219122;28;19928;-72
2023/11/23 00:03:38;;;;;;;;;;;;;;;1.22;72.97;101596.19;4219505;28;20026;-71
2023/11/23 00:05:40;;;;;;;;;;;;;;;1.23;73.02;101598.75;4220984;28;19947;-71
2023/11/23 00:07:41;;;;;;;;;;;;;;;1.27;72.82;101580.81;4220930;28;20462;-71
2023/11/23 00:09:43;;;;;;;;;;;;;;;1.24;72.97;101578.34;4220442;28;20020;-69
2023/11/23 00:11:46;;;;;;;;;;;;;;;1.26;72.90;101595.06;4220186;28;20552;-70
2023/11/23 00:13:49;;;;;;;;;;;;;;;1.24;72.90;101573.88;4220839;28;20465;-72
2023/11/23 00:15:51;;;;;;;;;;;;;;;1.23;73.13;101569.50;4220540;28;19952;-70
2023/11/23 00:17:52;;;;;;;;;;;;;;;1.28;72.85;101555.91;4220114;28;20416;-70
2023/11/23 00:19:54;;;;;;;;;;;;;;;1.27;72.81;101543.56;4220470;28;20014;-71
2023/11/23 00:21:55;;;;;;;;;;;;;;;1.30;72.95;101540.72;4220218;28;20022;-71
2023/11/23 00:23:57;;;;;;;;;;;;;;;1.30;72.79;101534.50;4220451;28;19931;-71
2023/11/23 00:25:59;;;;;;;;;;;;;;;1.37;72.93;101515.38;4219677;28;20094;-71
2023/11/23 00:28:02;;;;;;;;;;;;;;;1.41;72.53;101518.69;4219354;27;20022;-72
2023/11/23 00:30:04;;;;;;;;;;;;;;;1.38;72.50;101497.59;4220636;28;20030;-71
2023/11/23 00:32:07;;;;;;;;;;;;;;;1.39;72.40;101492.19;4218581;28;20026;-71
2023/11/23 00:34:10;;;;;;;;;;;;;;;1.39;72.58;101486.00;4218118;28;20014;-71
2023/11/23 00:36:13;;;;;;;;;;;;;;;1.39;72.30;101478.88;4220734;28;20022;-71
2023/11/23 00:38:18;;;;;;;;;;;;;;;1.41;72.25;101465.47;4220470;28;20015;-71
2023/11/23 00:40:21;;;;;;;;;;;;;;;1.42;72.38;101456.53;4219772;28;20918;-69
2023/11/23 00:42:24;;;;;;;;;;;;;;;1.43;72.34;101450.25;4219630;28;20361;-71
2023/11/23 00:44:27;;;;;;;;;;;;;;;1.46;72.08;101446.53;4220296;28;20022;-71
2023/11/23 00:46:29;;;;;;;;;;;;;;;1.48;72.22;101439.31;4218939;28;20030;-71
2023/11/23 00:48:32;;;;;;;;;;;;;;;1.50;72.05;101432.06;4218554;28;20010;-71
2023/11/23 00:50:33;;;;;;;;;;;;;;;1.51;72.26;101455.94;4218635;28;20042;-71
2023/11/23 00:52:35;;;;;;;;;;;;;;;1.57;72.05;101428.91;4219503;28;20031;-71
2023/11/23 00:54:39;;;;;;;;;;;;;;;1.56;71.92;101413.88;4219262;28;20347;-71
2023/11/23 00:56:41;;;;;;;;;;;;;;;1.59;71.90;101426.16;4217612;28;20079;-71
2023/11/23 00:58:44;;;;;;;;;;;;;;;1.64;71.67;101418.69;4220173;28;20372;-71
2023/11/23 01:00:49;;;;;;;;;;;;;;;1.68;71.52;101400.69;4219320;28;20018;-71
2023/11/23 01:02:52;;;;;;;;;;;;;;;1.73;71.46;101418.09;4219363;28;19927;-71
2023/11/23 01:04:54;;;;;;;;;;;;;;;1.75;71.38;101404.66;4218987;28;20023;-71
2023/11/23 01:06:58;;;;;;;;;;;;;;;1.72;71.35;101402.22;4219652;28;20090;-72
2023/11/23 01:09:00;;;;;;;;;;;;;;;1.75;71.39;101394.00;4219303;28;20018;-71
2023/11/23 01:11:02;;;;;;;;;;;;;;;1.80;71.53;101405.19;4218341;27;20022;-71
2023/11/23 01:13:06;;;;;;;;;;;;;;;1.86;71.05;101402.13;4217629;28;20489;-70
2023/11/23 01:15:08;;;;;;;;;;;;;;;1.87;70.82;101403.84;4219621;28;20031;-71
2023/11/23 01:17:11;;;;;;;;;;;;;;;1.88;70.85;101397.56;4219955;28;20107;-71
2023/11/23 01:19:13;;;;;;;;;;;;;;;1.88;71.07;101405.56;4219259;28;20010;-69
2023/11/23 01:21:15;;;;;;;;;;;;;;;1.90;70.95;101408.94;4219937;28;20019;-71
2023/11/23 01:23:16;;;;;;;;;;;;;;;1.91;71.06;101381.38;4219507;28;20007;-71
2023/11/23 01:25:18;;;;;;;;;;;;;;;1.93;71.08;101367.94;4220073;28;20026;-72
2023/11/23 01:27:20;;;;;;;;;;;;;;;1.93;71.04;101368.78;4218714;28;20699;-71
2023/11/23 01:29:22;;;;;;;;;;;;;;;1.96;70.87;101357.91;4219272;28;20775;-72
2023/11/23 01:31:24;;;;;;;;;;;;;;;1.97;70.98;101375.63;4217705;28;20023;-71
2023/11/23 01:33:27;;;;;;;;;;;;;;;1.95;70.73;101368.69;4218069;28;20018;-72
2023/11/23 01:35:29;;;;;;;;;;;;;;;1.98;70.82;101368.47;4217639;28;20438;-71
2023/11/23 01:37:31;;;;;;;;;;;;;;;1.99;70.83;101370.16;4219034;28;20026;-71
2023/11/23 01:39:33;;;;;;;;;;;;;;;2.03;71.18;101352.16;4219446;28;20023;-72
2023/11/23 01:41:35;;;;;;;;;;;;;;;2.04;70.97;101360.06;4218829;28;19998;-72
2023/11/23 01:43:37;;;;;;;;;;;;;;;2.05;71.13;101348.41;4219856;28;20025;-72
2023/11/23 01:45:39;;;;;;;;;;;;;;;2.10;70.92;101345.44;4212305;28;20583;-72
2023/11/23 01:47:42;;;;;;;;;;;;;;;2.10;70.92;101340.09;4219306;28;20346;-72
2023/11/23 01:49:45;;;;;;;;;;;;;;;2.15;70.82;101338.84;4217853;28;20019;-71
2023/11/23 01:51:47;;;;;;;;;;;;;;;2.15;70.97;101335.31;4219051;28;20374;-72
2023/11/23 01:53:49;;;;;;;;;;;;;;;2.17;70.84;101336.06;4220587;28;20014;-72
2023/11/23 01:55:51;;;;;;;;;;;;;;;2.19;70.68;101336.78;4202678;28;20426;-72
2023/11/23 01:57:54;;;;;;;;;;;;;;;2.18;70.74;101324.44;4220521;28;20556;-72
2023/11/23 01:59:56;;;;;;;;;;;;;;;2.23;70.64;101335.63;4221357;28;20027;-72
2023/11/23 02:01:58;;;;;;;;;;;;;;;2.26;70.47;101322.09;4222884;28;20387;-70
2023/11/23 02:04:00;;;;;;;;;;;;;;;2.27;70.53;101317.59;4222991;28;20019;-70
2023/11/23 02:06:03;;;;;;;;;;;;;;;2.26;70.58;101313.25;4221312;28;20043;-72
2023/11/23 02:08:07;;;;;;;;;;;;;;;2.27;70.92;101294.47;4222597;28;20015;-72
2023/11/23 02:10:09;;;;;;;;;;;;;;;2.30;70.58;101299.59;4204829;28;20022;-71
2023/11/23 02:12:11;;;;;;;;;;;;;;;2.32;70.66;101304.78;4219623;28;20024;-72
2023/11/23 02:14:12;;;;;;;;;;;;;;;2.31;70.90;101298.63;4204978;28;20376;-72
2023/11/23 02:16:14;;;;;;;;;;;;;;;2.29;70.69;101299.69;4222241;28;19928;-72
2023/11/23 02:18:16;;;;;;;;;;;;;;;2.32;70.94;101283.47;4222428;28;20026;-72
2023/11/23 02:20:17;;;;;;;;;;;;;;;2.33;71.02;101279.84;4222209;28;20406;-72
2023/11/23 02:22:21;;;;;;;;;;;;;;;2.35;71.01;101280.56;4220980;28;20031;-72
2023/11/23 02:24:23;;;;;;;;;;;;;;;2.34;70.88;101277.06;4204982;28;20447;-71
2023/11/23 02:26:25;;;;;;;;;;;;;;;2.40;70.77;101265.13;4220725;27;20015;-71
2023/11/23 02:28:26;;;;;;;;;;;;;;;2.37;71.03;101264.47;4222114;28;20018;-70
2023/11/23 02:30:28;;;;;;;;;;;;;;;2.39;70.92;101255.41;4220665;28;20023;-72
2023/11/23 02:32:30;;;;;;;;;;;;;;;2.44;70.68;101268.41;4221116;28;20006;-72
2023/11/23 02:34:32;;;;;;;;;;;;;;;2.46;70.90;101267.34;4221347;28;20031;-72
2023/11/23 02:36:34;;;;;;;;;;;;;;;2.47;70.72;101257.53;4204700;28;20024;-72
2023/11/23 02:38:36;;;;;;;;;;;;;;;2.50;70.64;101255.47;4221343;28;20022;-72
2023/11/23 02:40:40;;;;;;;;;;;;;;;2.51;70.69;101251.84;4221702;28;20027;-72
2023/11/23 02:42:42;;;;;;;;;;;;;;;2.54;70.71;101264.13;4219679;28;19963;-71
2023/11/23 02:44:44;;;;;;;;;;;;;;;2.58;70.40;101252.25;4221123;28;20026;-71
2023/11/23 02:46:46;;;;;;;;;;;;;;;2.60;70.50;101244.13;4222059;28;20012;-71
2023/11/23 02:48:48;;;;;;;;;;;;;;;2.63;70.37;101247.44;4222214;28;20030;-72
2023/11/23 02:50:50;;;;;;;;;;;;;;;2.65;70.19;101232.19;4221078;28;20027;-72
2023/11/23 02:52:53;;;;;;;;;;;;;;;2.62;70.33;101250.22;4221284;28;20038;-72
2023/11/23 02:54:54;;;;;;;;;;;;;;;2.64;70.32;101237.63;4222076;28;20010;-71
2023/11/23 02:56:57;;;;;;;;;;;;;;;2.68;70.16;101263.97;4221800;28;20018;-72
2023/11/23 02:58:59;;;;;;;;;;;;;;;2.70;70.15;101231.84;4220504;28;20028;-72
2023/11/23 03:01:01;;;;;;;;;;;;;;;2.72;70.09;101240.56;4220690;28;20366;-71
2023/11/23 03:03:02;;;;;;;;;;;;;;;2.73;70.16;101238.75;4220199;28;20007;-72
2023/11/23 03:05:06;;;;;;;;;;;;;;;2.76;70.07;101231.38;4221463;28;19928;-72
2023/11/23 03:07:08;;;;;;;;;;;;;;;2.77;70.03;101235.72;4222398;28;20011;-72
2023/11/23 03:09:10;;;;;;;;;;;;;;;2.78;70.26;101231.28;4222020;28;20042;-71
2023/11/23 03:11:18;;;;;;;;;;;;;;;2.81;70.10;101223.88;4221314;28;20031;-71
2023/11/23 03:13:22;;;;;;;;;;;;;;;2.81;70.04;101237.22;4221768;28;20032;-72
2023/11/23 03:15:23;;;;;;;;;;;;;;;2.83;70.04;101218.44;4221340;28;20461;-72
2023/11/23 03:17:24;;;;;;;;;;;;;;;2.84;70.04;101207.66;4222025;28;19924;-71
2023/11/23 03:19:26;;;;;;;;;;;;;;;2.85;70.20;101222.69;4221410;28;20018;-70
2023/11/23 03:21:27;;;;;;;;;;;;;;;2.90;70.27;101209.00;4220955;28;20027;-71
2023/11/23 03:23:29;;;;;;;;;;;;;;;2.94;70.09;101228.31;4221431;28;19927;-69
2023/11/23 03:25:31;;;;;;;;;;;;;;;2.97;70.39;101199.56;4221665;28;20354;-70
2023/11/23 03:27:36;;;;;;;;;;;;;;;3.00;70.56;101210.00;4221888;28;20018;-70
2023/11/23 03:29:40;;;;;;;;;;;;;;;3.01;70.32;101198.38;4222047;28;20011;-72
2023/11/23 03:31:42;;;;;;;;;;;;;;;3.02;70.52;101199.22;4220799;28;20015;-69
2023/11/23 03:33:44;;;;;;;;;;;;;;;3.04;70.24;101192.81;4221039;28;20031;-69
2023/11/23 03:35:45;;;;;;;;;;;;;;;3.05;70.38;101189.16;4220451;28;20007;-71
2023/11/23 03:37:49;;;;;;;;;;;;;;;3.05;70.29;101190.97;4222269;28;20014;-70
2023/11/23 03:39:53;;;;;;;;;;;;;;;3.06;70.31;101180.19;4220439;28;20027;-70
2023/11/23 03:41:55;;;;;;;;;;;;;;;3.09;70.63;101196.91;4219488;28;20035;-70
2023/11/23 03:43:58;;;;;;;;;;;;;;;3.11;70.53;101189.66;4221362;28;20019;-70
2023/11/23 03:46:02;;;;;;;;;;;;;;;3.14;70.50;101181.44;4221416;28;19932;-69
2023/11/23 03:48:04;;;;;;;;;;;;;;;3.13;70.89;101172.53;4221142;28;20027;-70
2023/11/23 03:50:07;;;;;;;;;;;;;;;3.15;70.58;101175.97;4221094;28;20026;-70
2023/11/23 03:52:09;;;;;;;;;;;;;;;3.17;70.75;101176.69;4220958;28;20096;-70
2023/11/23 03:54:11;;;;;;;;;;;;;;;3.20;70.99;101181.78;4221172;28;20018;-70
2023/11/23 03:56:14;;;;;;;;;;;;;;;3.21;71.09;101170.16;4219684;28;20023;-71
2023/11/23 03:58:15;;;;;;;;;;;;;;;3.22;70.87;101169.16;4220810;28;20015;-70
2023/11/23 04:00:18;;;;;;;;;;;;;;;3.24;70.98;101145.91;4219530;27;19932;-71
2023/11/23 04:02:21;;;;;;;;;;;;;;;3.26;70.95;101148.44;4219490;28;20022;-70
2023/11/23 04:04:23;;;;;;;;;;;;;;;3.28;71.26;101156.34;4220950;28;20020;-70
2023/11/23 04:06:25;;;;;;;;;;;;;;;3.31;71.17;101151.59;4220593;28;20015;-71
2023/11/23 04:08:27;;;;;;;;;;;;;;;3.33;71.36;101149.66;4221180;28;20011;-70
2023/11/23 04:10:28;;;;;;;;;;;;;;;3.33;71.31;101157.66;4219504;28;20021;-71
2023/11/23 04:12:30;;;;;;;;;;;;;;;3.33;71.38;101138.13;4219931;28;19932;-71
2023/11/23 04:14:32;;;;;;;;;;;;;;;3.34;71.44;101153.16;4220516;28;20022;-71
2023/11/23 04:16:34;;;;;;;;;;;;;;;3.37;71.45;101139.56;4220611;28;20031;-70
2023/11/23 04:18:36;;;;;;;;;;;;;;;3.39;71.64;101134.97;4220621;28;20367;-70
2023/11/23 04:20:38;;;;;;;;;;;;;;;3.40;71.70;101144.66;4219605;28;20023;-71
2023/11/23 04:22:40;;;;;;;;;;;;;;;3.41;71.85;101141.88;4220220;28;20011;-70
2023/11/23 04:24:42;;;;;;;;;;;;;;;3.43;72.04;101163.13;4219261;28;20022;-72
2023/11/23 04:26:44;;;;;;;;;;;;;;;3.43;71.96;101144.44;4219878;28;20357;-70
2023/11/23 04:28:48;;;;;;;;;;;;;;;3.46;71.98;101138.84;4219854;28;20030;-70
2023/11/23 04:30:50;;;;;;;;;;;;;;;3.49;72.22;101143.09;4219687;28;20018;-70
2023/11/23 04:32:51;;;;;;;;;;;;;;;3.49;72.18;101129.75;4219642;28;20556;-69
2023/11/23 04:34:54;;;;;;;;;;;;;;;3.50;72.48;101118.94;4219099;28;19976;-70
2023/11/23 04:36:56;;;;;;;;;;;;;;;3.52;72.40;101113.50;4219573;28;20022;-70
2023/11/23 04:38:58;;;;;;;;;;;;;;;3.53;72.66;101116.03;4220298;28;20660;-71
2023/11/23 04:41:01;;;;;;;;;;;;;;;3.55;72.90;101118.59;4220000;28;20453;-70
2023/11/23 04:43:03;;;;;;;;;;;;;;;3.55;72.58;101111.41;4219242;28;20046;-69
2023/11/23 04:45:06;;;;;;;;;;;;;;;3.57;72.73;101135.34;4219445;28;20003;-72
2023/11/23 04:47:08;;;;;;;;;;;;;;;3.60;73.12;101116.38;4219593;28;19924;-70
2023/11/23 04:49:09;;;;;;;;;;;;;;;3.60;73.08;101095.91;4219534;28;20039;-70
2023/11/23 04:51:12;;;;;;;;;;;;;;;3.62;72.97;101095.78;4218906;28;20565;-70
2023/11/23 04:53:13;;;;;;;;;;;;;;;3.63;73.30;101089.44;4220439;28;20024;-70
2023/11/23 04:55:15;;;;;;;;;;;;;;;3.65;73.24;101110.69;4220010;28;20854;-69
2023/11/23 04:57:18;;;;;;;;;;;;;;;3.65;73.19;101091.97;4219579;28;20022;-70
2023/11/23 04:59:20;;;;;;;;;;;;;;;3.67;73.58;101090.91;4219553;28;20027;-72
2023/11/23 05:01:22;;;;;;;;;;;;;;;3.69;73.50;101110.31;4219731;28;20027;-70
2023/11/23 05:03:28;;;;;;;;;;;;;;;3.69;73.79;101102.31;4218423;28;20159;-70
2023/11/23 05:05:30;;;;;;;;;;;;;;;3.71;73.89;101094.16;4218086;28;20454;-72
2023/11/23 05:07:32;;;;;;;;;;;;;;;3.71;73.68;101092.34;4218849;28;20371;-73
2023/11/23 05:09:34;;;;;;;;;;;;;;;3.73;73.99;101081.53;4220146;28;20022;-71
2023/11/23 05:11:36;;;;;;;;;;;;;;;3.74;74.26;101092.09;4218092;28;20034;-70
2023/11/23 05:13:38;;;;;;;;;;;;;;;3.75;74.18;101079.59;4219027;28;20027;-72
2023/11/23 05:15:40;;;;;;;;;;;;;;;3.76;74.54;101071.47;4217736;28;20414;-70
2023/11/23 05:17:42;;;;;;;;;;;;;;;3.77;74.57;101074.97;4217847;28;20018;-71
2023/11/23 05:19:44;;;;;;;;;;;;;;;3.78;74.55;101082.03;4219003;28;20019;-71
2023/11/23 05:21:47;;;;;;;;;;;;;;;3.80;74.69;101082.72;4218667;28;20018;-70
2023/11/23 05:23:49;;;;;;;;;;;;;;;3.81;74.59;101084.44;4235333;27;20066;-70
2023/11/23 05:25:51;;;;;;;;;;;;;;;3.81;74.75;101081.78;4219054;28;20030;-71
2023/11/23 05:27:53;;;;;;;;;;;;;;;3.83;74.88;101076.31;4218101;28;20620;-70
2023/11/23 05:29:56;;;;;;;;;;;;;;;3.85;75.07;101071.69;4219005;28;20015;-73
2023/11/23 05:31:58;;;;;;;;;;;;;;;3.86;75.22;101066.19;4218228;28;20022;-70
2023/11/23 05:34:00;;;;;;;;;;;;;;;3.86;75.31;101071.56;4218153;28;20026;-70
2023/11/23 05:36:01;;;;;;;;;;;;;;;3.88;75.57;101066.06;4217930;28;20019;-72
2023/11/23 05:38:03;;;;;;;;;;;;;;;3.88;75.42;101079.44;4217954;28;19931;-73
2023/11/23 05:40:08;;;;;;;;;;;;;;;3.89;75.58;101076.66;4218453;28;20022;-71
2023/11/23 05:42:10;;;;;;;;;;;;;;;3.91;75.49;101101.41;4217909;28;20015;-70
2023/11/23 05:44:12;;;;;;;;;;;;;;;3.92;76.11;101080.91;4217889;28;20027;-70
2023/11/23 05:46:14;;;;;;;;;;;;;;;3.93;76.23;101072.75;4219118;28;20376;-70
2023/11/23 05:48:16;;;;;;;;;;;;;;;3.93;76.53;101070.09;4219714;28;19963;-70
2023/11/23 05:50:18;;;;;;;;;;;;;;;3.95;76.47;101056.59;4219518;28;20009;-68
2023/11/23 05:52:20;;;;;;;;;;;;;;;3.98;76.59;101061.66;4218791;28;20030;-72
2023/11/23 05:54:22;;;;;;;;;;;;;;;4.00;77.15;101056.19;4218664;28;20027;-70
2023/11/23 05:56:27;;;;;;;;;;;;;;;4.00;77.05;101050.84;4218372;28;20027;-70
2023/11/23 05:58:27;;;;;;;;;;;;;;;4.02;77.48;101048.91;4219543;28;20015;-70
2023/11/23 06:00:31;;;;;;;;;;;;;;;4.03;77.40;101038.09;4217817;28;19939;-73
2023/11/23 06:02:33;;;;;;;;;;;;;;;4.04;78.06;101047.78;4218390;28;20020;-70
2023/11/23 06:04:34;;;;;;;;;;;;;;;4.06;78.41;101048.53;4218269;28;20374;-70
2023/11/23 06:06:36;;;;;;;;;;;;;;;4.07;78.68;101036.00;4218125;28;19928;-71
2023/11/23 06:08:38;;;;;;;;;;;;;;;4.09;79.08;101020.69;4218609;28;20382;-71
2023/11/23 06:10:40;;;;;;;;;;;;;;;4.11;78.96;101016.06;4199608;28;20596;-70
2023/11/23 06:12:43;;;;;;;;;;;;;;;4.11;79.20;101002.72;4216951;28;20019;-70
2023/11/23 06:14:45;;;;;;;;;;;;;;;4.12;79.40;101015.06;4218691;28;20015;-70
2023/11/23 06:16:47;;;;;;;;;;;;;;;4.13;79.47;101031.00;4218369;28;20019;-69
2023/11/23 06:18:49;;;;;;;;;;;;;;;4.15;79.85;101031.72;4219253;28;20010;-69
2023/11/23 06:20:51;;;;;;;;;;;;;;;4.18;80.13;101033.28;4218451;28;20338;-70
2023/11/23 06:22:55;;;;;;;;;;;;;;;4.20;80.26;101033.16;4218589;28;20007;-69
2023/11/23 06:24:57;;;;;;;;;;;;;;;4.22;80.26;101039.25;4217193;28;20007;-69
2023/11/23 06:26:59;;;;;;;;;;;;;;;4.22;80.82;101037.41;4219075;28;20031;-70
2023/11/23 06:29:02;;;;;;;;;;;;;;;4.24;80.91;101037.28;4218448;28;19954;-71
2023/11/23 06:31:04;;;;;;;;;;;;;;;4.24;81.00;101023.91;4218244;28;20366;-69
2023/11/23 06:33:08;;;;;;;;;;;;;;;4.26;81.07;101021.94;4217823;28;20014;-70
2023/11/23 06:35:10;;;;;;;;;;;;;;;4.29;81.50;101021.69;4218399;28;20019;-70
2023/11/23 06:37:12;;;;;;;;;;;;;;;4.29;81.43;101027.88;4219212;28;20014;-70
2023/11/23 06:39:23;;;;;;;;;;;;;;;4.31;81.65;101011.69;4221480;28;20077;-70
2023/11/23 06:41:25;;;;;;;;;;;;;;;4.32;81.76;101008.91;4221771;28;20107;-70
2023/11/23 06:43:27;;;;;;;;;;;;;;;4.33;82.13;101005.25;4222557;28;19999;-73
2023/11/23 06:45:30;;;;;;;;;;;;;;;4.35;82.21;100996.28;4222320;28;20372;-71
2023/11/23 06:47:32;;;;;;;;;;;;;;;4.36;82.45;101004.16;4220862;28;20019;-70
2023/11/23 06:49:35;;;;;;;;;;;;;;;4.38;82.84;100999.53;4220239;28;20010;-70
2023/11/23 06:51:36;;;;;;;;;;;;;;;4.40;82.98;100996.72;4220957;28;20019;-70
2023/11/23 06:53:43;;;;;;;;;;;;;;;4.40;83.26;100994.88;4220860;28;20011;-70
2023/11/23 06:55:46;;;;;;;;;;;;;;;4.43;83.73;100988.44;4221109;28;20473;-71
2023/11/23 06:57:47;;;;;;;;;;;;;;;4.43;83.60;100975.91;4221646;28;20015;-69
2023/11/23 06:59:49;;;;;;;;;;;;;;;4.45;83.48;100983.78;4222121;28;20035;-69
2023/11/23 07:01:53;;;;;;;;;;;;;;;4.45;84.29;100994.50;4220567;28;20442;-71
2023/11/23 07:03:55;;;;;;;;;;;;;;;4.46;84.38;100978.31;4220223;28;20019;-69
2023/11/23 07:05:57;;;;;;;;;;;;;;;4.47;84.14;100971.16;4220455;28;20019;-68
2023/11/23 07:07:59;;;;;;;;;;;;;;;4.49;84.55;100978.06;4221731;28;20014;-69
2023/11/23 07:10:02;;;;;;;;;;;;;;;4.50;85.06;100976.25;4220652;28;19956;-69
2023/11/23 07:12:04;;;;;;;;;;;;;;;4.51;85.15;100967.22;4219074;28;20019;-71
2023/11/23 07:14:07;;;;;;;;;;;;;;;4.52;85.33;100968.94;4220952;28;20019;-69
2023/11/23 07:16:09;;;;;;;;;;;;;;;4.55;85.48;100967.81;4220421;27;20478;-69
2023/11/23 07:18:13;;;;;;;;;;;;;;;4.53;85.20;100962.59;4221180;28;20054;-69
2023/11/23 07:20:15;;;;;;;;;;;;;;;4.54;85.35;100969.63;4219996;28;20026;-70
2023/11/23 07:22:17;;;;;;;;;;;;;;;4.55;85.67;100973.19;4220495;28;20380;-69
2023/11/23 07:24:19;;;;;;;;;;;;;;;4.56;85.89;100942.75;4220659;28;20042;-69
2023/11/23 07:26:21;;;;;;;;;;;;;;;4.57;86.22;100945.28;4221650;28;20030;-69
2023/11/23 07:28:26;;;;;;;;;;;;;;;4.58;86.29;100948.84;4219443;28;20026;-70
2023/11/23 07:30:28;;;;;;;;;;;;;;;4.58;86.50;100941.66;4219299;28;20364;-69
2023/11/23 07:32:31;;;;;;;;;;;;;;;4.59;86.34;100929.97;4220882;28;20485;-70
2023/11/23 07:34:33;;;;;;;;;;;;;;;4.59;86.01;100927.31;4220218;28;20007;-69
2023/11/23 07:36:35;;;;;;;;;;;;;;;4.59;86.25;100967.44;4219665;28;20014;-69
2023/11/23 07:38:36;;;;;;;;;;;;;;;4.60;86.48;100934.31;4221068;28;20015;-69
2023/11/23 07:40:38;;;;;;;;;;;;;;;4.61;86.40;100908.44;4220695;28;20002;-70
2023/11/23 07:42:41;;;;;;;;;;;;;;;4.62;86.85;100916.31;4220174;28;19966;-69
2023/11/23 07:44:43;;;;;;;;;;;;;;;4.63;86.77;100926.03;4220329;28;20035;-71
2023/11/23 07:46:46;;;;;;;;;;;;;;;4.65;87.02;100925.91;4220731;28;20018;-69
2023/11/23 07:48:52;;;;;;;;;;;;;;;4.65;87.19;100915.19;4219742;28;20437;-69
2023/11/23 07:50:56;;;;;;;;;;;;;;;4.66;87.56;100916.91;4218447;28;19928;-69
2023/11/23 07:52:58;;;;;;;;;;;;;;;4.66;87.73;100904.38;4219837;28;20003;-69
2023/11/23 07:55:00;;;;;;;;;;;;;;;4.67;87.42;100898.03;4220321;28;20110;-69
2023/11/23 07:57:02;;;;;;;;;;;;;;;4.68;87.53;100886.34;4219900;28;20014;-68
2023/11/23 07:59:04;;;;;;;;;;;;;;;4.68;87.33;100915.75;4219954;28;20027;-70
2023/11/23 08:01:07;;;;;;;;;;;;;;;4.69;87.49;100893.38;4220115;27;20357;-69
2023/11/23 08:03:09;;;;;;;;;;;;;;;4.69;87.70;100890.72;4220218;28;20016;-69
2023/11/23 08:05:11;;;;;;;;;;;;;;;4.71;87.82;100887.91;4220629;28;20473;-70
2023/11/23 08:07:15;;;;;;;;;;;;;;;4.72;87.96;100886.94;4219360;28;20019;-69
2023/11/23 08:09:19;;;;;;;;;;;;;;;4.73;87.95;100869.88;4220209;28;20015;-72
2023/11/23 08:11:21;;;;;;;;;;;;;;;4.73;88.18;100879.75;4219965;28;20094;-68
2023/11/23 08:13:23;;;;;;;;;;;;;;;4.75;88.48;100859.91;4220420;28;20019;-68
2023/11/23 08:15:25;;;;;;;;;;;;;;;4.76;88.91;100858.06;4219640;28;20014;-69
2023/11/23 08:17:27;;;;;;;;;;;;;;;4.76;88.94;100874.13;4220397;28;20022;-70
2023/11/23 08:19:30;;;;;;;;;;;;;;;4.78;88.90;100865.00;4220146;28;20038;-68
2023/11/23 08:21:32;;;;;;;;;;;;;;;4.78;89.16;100866.78;4219513;28;20453;-70
2023/11/23 08:23:35;;;;;;;;;;;;;;;4.79;89.49;100863.16;4219714;28;20605;-69
2023/11/23 08:25:37;;;;;;;;;;;;;;;4.82;90.07;100852.19;4219606;28;20179;-68
2023/11/23 08:27:39;;;;;;;;;;;;;;;4.81;89.86;100851.34;4220264;28;20011;-70
2023/11/23 08:29:41;;;;;;;;;;;;;;;4.83;90.05;100861.91;4220280;28;20003;-69
2023/11/23 08:31:45;;;;;;;;;;;;;;;4.83;90.33;100844.00;4218333;28;19924;-70
2023/11/23 08:33:47;;;;;;;;;;;;;;;4.84;90.31;100853.75;4219692;28;20052;-70
2023/11/23 08:35:49;;;;;;;;;;;;;;;4.86;90.56;100842.91;4219800;28;20458;-70
2023/11/23 08:37:51;;;;;;;;;;;;;;;4.87;90.65;100847.25;4219622;28;20019;-69
2023/11/23 08:39:55;;;;;;;;;;;;;;;4.88;90.57;100819.50;4219648;28;20015;-69
2023/11/23 08:41:57;;;;;;;;;;;;;;;4.90;90.95;100824.72;4198723;28;20467;-70
2023/11/23 08:44:04;;;;;;;;;;;;;;;4.90;90.96;100851.50;4219006;28;20010;-69
2023/11/23 08:46:07;;;;;;;;;;;;;;;4.92;91.19;100817.41;4219325;28;19970;-68
2023/11/23 08:48:09;;;;;;;;;;;;;;;4.93;90.95;100808.38;4219687;28;20469;-70
2023/11/23 08:50:13;;;;;;;;;;;;;;;4.95;91.27;100833.19;4218867;28;20098;-69
2023/11/23 08:52:15;;;;;;;;;;;;;;;4.95;90.97;100817.94;4219490;28;19924;-70
2023/11/23 08:54:18;;;;;;;;;;;;;;;4.96;91.19;100816.97;4218781;28;20026;-69
2023/11/23 08:56:20;;;;;;;;;;;;;;;4.97;91.39;100816.00;4218569;28;20454;-70
2023/11/23 08:58:22;;;;;;;;;;;;;;;4.99;91.30;100818.53;4220032;28;20317;-69
2023/11/23 09:00:25;;;;;;;;;;;;;;;5.00;91.09;100812.19;4218845;28;20027;-70
2023/11/23 09:02:26;;;;;;;;;;;;;;;5.01;91.22;100828.09;4218775;28;20018;-69
2023/11/23 09:04:29;;;;;;;;;;;;;;;5.02;91.32;100815.59;4219278;28;20110;-69
2023/11/23 09:06:31;;;;;;;;;;;;;;;5.04;91.46;100816.28;4219813;28;20379;-69
2023/11/23 09:08:33;;;;;;;;;;;;;;;5.04;91.24;100816.28;4219630;28;20030;-70
2023/11/23 09:10:35;;;;;;;;;;;;;;;5.05;91.35;100801.94;4218447;28;20023;-70
2023/11/23 09:12:38;;;;;;;;;;;;;;;5.06;91.49;100800.94;4218173;28;19970;-69
2023/11/23 09:14:40;;;;;;;;;;;;;;;5.07;91.25;100788.41;4234946;27;20472;-70
2023/11/23 09:16:42;;;;;;;;;;;;;;;5.08;91.27;100787.41;4218950;28;20018;-70
2023/11/23 09:18:44;;;;;;;;;;;;;;;5.09;91.49;100786.44;4218810;28;20015;-69
2023/11/23 09:20:47;;;;;;;;;;;;;;;5.07;91.33;100775.03;4219181;28;20022;-69
2023/11/23 09:22:49;;;;;;;;;;;;;;;5.11;91.70;100805.84;4219826;28;20022;-69
2023/11/23 09:24:50;;;;;;;;;;;;;;;5.12;91.56;100776.28;4219460;28;20393;-69
2023/11/23 09:26:52;;;;;;;;;;;;;;;5.13;91.48;100791.34;4219289;28;20011;-70
2023/11/23 09:28:56;;;;;;;;;;;;;;;5.14;91.63;100785.03;4219738;28;20003;-69
2023/11/23 09:30:58;;;;;;;;;;;;;;;5.15;91.36;100780.50;4218864;28;20026;-70
2023/11/23 09:33:00;;;;;;;;;;;;;;;5.16;91.66;100766.16;4217848;28;20341;-69
2023/11/23 09:35:02;;;;;;;;;;;;;;;5.16;91.47;100766.16;4218833;28;20018;-69
2023/11/23 09:37:06;;;;;;;;;;;;;;;5.18;91.68;100732.03;4220074;28;20014;-69
2023/11/23 09:39:09;;;;;;;;;;;;;;;5.19;91.34;100768.53;4219867;28;20027;-69
2023/11/23 09:41:12;;;;;;;;;;;;;;;5.20;91.67;100738.94;4218104;28;20011;-71
2023/11/23 09:43:15;;;;;;;;;;;;;;;5.20;91.78;100746.13;4218140;28;20030;-68
2023/11/23 09:45:19;;;;;;;;;;;;;;;5.22;91.81;100757.56;4218695;28;20015;-70
2023/11/23 09:47:21;;;;;;;;;;;;;;;5.22;91.62;100742.31;4219198;28;20018;-70
2023/11/23 09:49:24;;;;;;;;;;;;;;;5.23;91.73;100738.66;4218250;28;20018;-69
2023/11/23 09:51:26;;;;;;;;;;;;;;;5.24;92.21;100737.66;4218975;28;20466;-69
2023/11/23 09:53:28;;;;;;;;;;;;;;;5.24;92.00;100720.75;4219814;28;20524;-69
2023/11/23 09:55:30;;;;;;;;;;;;;;;5.25;91.95;100717.09;4219306;28;20023;-68
2023/11/23 09:57:32;;;;;;;;;;;;;;;5.27;92.09;100723.16;4219258;28;20027;-69
2023/11/23 09:59:35;;;;;;;;;;;;;;;5.28;91.88;100730.16;4219287;28;20035;-69
2023/11/23 10:01:38;;;;;;;;;;;;;;;5.29;91.99;100706.94;4218445;28;20315;-69
2023/11/23 10:03:39;;;;;;;;;;;;;;;5.29;92.03;100710.44;4219091;28;20030;-69
2023/11/23 10:05:41;;;;;;;;;;;;;;;5.29;92.07;100705.09;4219486;28;19950;-69
2023/11/23 10:07:42;;;;;;;;;;;;;;;5.31;91.94;100696.91;4219585;28;20018;-70
2023/11/23 10:09:44;;;;;;;;;;;;;;;5.31;91.86;100687.03;4218912;28;20023;-70
2023/11/23 10:11:47;;;;;;;;;;;;;;;5.32;91.92;100694.09;4218943;28;20027;-69
2023/11/23 10:13:49;;;;;;;;;;;;;;;5.33;92.04;100676.19;4220465;28;20059;-69
2023/11/23 10:15:51;;;;;;;;;;;;;;;5.34;91.78;100676.03;4222442;28;20006;-69
2023/11/23 10:17:54;;;;;;;;;;;;;;;5.36;91.95;100670.53;4222585;28;20376;-69
2023/11/23 10:20:04;;;;;;;;;;;;;;;5.37;92.05;100672.25;4202613;28;20010;-69
2023/11/23 10:22:07;;;;;;;;;;;;;;;5.37;92.31;100674.91;4221740;28;20030;-69
2023/11/23 10:24:11;;;;;;;;;;;;;;;5.38;92.24;100663.22;4221753;28;20031;-70
2023/11/23 10:26:13;;;;;;;;;;;;;;;5.39;92.24;100660.41;4221835;28;20035;-70
2023/11/23 10:28:15;;;;;;;;;;;;;;;5.40;92.38;100664.75;4221198;28;20022;-69
2023/11/23 10:30:17;;;;;;;;;;;;;;;5.41;92.42;100660.25;4221166;28;20018;-69
2023/11/23 10:32:20;;;;;;;;;;;;;;;5.42;92.48;100653.88;4221417;28;20051;-70
2023/11/23 10:34:24;;;;;;;;;;;;;;;5.43;92.23;100636.00;4220839;27;19931;-70
2023/11/23 10:36:26;;;;;;;;;;;;;;;5.45;92.52;100636.69;4220955;28;20023;-69
2023/11/23 10:38:28;;;;;;;;;;;;;;;5.47;92.89;100637.38;4221864;28;20007;-69